Airfield :
LOGIN :

Register | Disclaimer

   EN    FR    IT 

 










Legend :    VFR   Marginal VFR   IFR   Intensive IFR   Very Intensive IFR
Visi :
Ceiling :
>= 8 km
>= 3000ft
5 to 8 km
1000 to 3000 ft
1500m to 5 km
500 to 1000 ft
800 to 1500m
200 to 500 ft
< 800m
< 200 ft
Symbols :   Thunderstorms  Fog  Heavy snow  Heavy precipitations  Wind > 20 kt
SIGMETs :     Misc.  Thunderstorms  Icing  Turbulence  Mountain Waves  Volcanic Ashes






- Airport Elevation : 326 ft
- IATA code : LCG


LECO - A Coruna

CURRENT METAR :
  • 170509Z 32010KT 280V010 4000 RA FEW011 SCT015 BKN024 11/10 Q1012 NOSIG

EXPIRED METARs :
  • 170500Z 31006KT 250V360 5000 -RA FEW011 SCT019 BKN024 11/10 Q1012 NOSIG
  • 170430Z 33010KT 290V010 3500 -RA FEW007 SCT011 BKN019 11/11 Q1012 NOSIG
  • 170400Z AUTO 26005G16KT 230V300 5000 RA BR OVC020 11/10 Q1012
  • 170330Z AUTO 23011KT 210V280 9999 SCT029 BKN037 11/10 Q1012
  • 170300Z AUTO 22015KT 9999 BKN038 BKN044 11/09 Q1012
  • 170230Z AUTO 22015KT 9999 FEW034 SCT040 11/09 Q1012

TAF TAF LECO
Valid from the 17 at 03:00 until the 18 at 03:00 UTC


170200Z 1703/1803 27009KT 9999 SCT015 BKN030 TX12/1713Z TN08/1803Z
PROB40
TEMPO 1703/1706 3000 RA BR BKN014
TEMPO 1705/1724 3000 RA SHRA BKN020TCU



MET'MAP, your aeronautical weather chart ! - Copyright ORBIFLY December 2007 - Disclaimer

ORBIFLY MET'MAP TEAM :

Programming & Development : Alexandra Zaïnal
Concept & Development : Baudouin d'Aumeries
Co-Development & Prog : Marc-Olivier Méhu
Technical & hardware support : Manuel Goepfert

Contact : metmap@orbifly.com




SOURCES & CREDITS :

   NOAA